Pagrindinis puslapis
METAR-TAF:

METAR-TAF

Oro uostai :

Bahija Blanka, Argentina

platuma: 38-44S, ilguma: 062-10W, Aukštis: 75 m

Dabartinis oras

Ataskaita buvo paskelbta 5 valandos ir 28 minutes, ne 10:38 UTC
Vėjas 6 kt iš Šiaurės/Šiaurės Vakarų
Temperatūra 11°C
Drėgmė 94%
Slėgis 1009 hPa
Matomumas: 4000 m
Apsiniaukę ne aukštis 4000 ft
lietus

METAR: SAZB 151038Z 34006KT 4000 -RA OVC040 11/10 Q1009

Laikas: 13:06 (16:06 UTC)


TAF: trūkstamas

Orai ataskaitas ir orų prognozės (METAR, TAF).

turimą stotys yra geltonos ir raudonos taškus žemėlapyje.

Perkelti pele per norėdami pamatyti stoties vardą.

Tada spustelėkite, norėdami matyti oro stebėjimo ir prognozės.

Norėdami pakeisti žemėlapį: spustelėkite ant žalios mygtukų su juodo kryžiaus žemyn,; žalią mygtuką su brūkšneliu, jei norite nutolinti; arba žalių rodyklių gretimoms žemėlapius.


METAR-TAF: